createdAt,value
2023-03-07T00:00:42.535Z,950.53
2023-03-07T00:01:42.636Z,950.56
2023-03-07T00:02:42.744Z,950.57
2023-03-07T00:03:42.689Z,950.54
2023-03-07T00:04:42.592Z,950.57
2023-03-07T00:05:42.612Z,950.55
2023-03-07T00:06:42.638Z,950.6
2023-03-07T00:07:42.588Z,950.57
2023-03-07T00:08:42.674Z,950.59
2023-03-07T00:09:42.596Z,950.57
2023-03-07T00:11:42.669Z,950.56
2023-03-07T00:12:42.713Z,950.58
2023-03-07T00:13:42.622Z,950.57
2023-03-07T00:14:42.648Z,950.53
2023-03-07T00:15:42.584Z,950.51
2023-03-07T00:16:42.607Z,950.48
2023-03-07T00:17:42.619Z,950.45
2023-03-07T00:19:42.655Z,950.47
2023-03-07T00:20:42.602Z,950.4
2023-03-07T00:22:42.616Z,950.41
2023-03-07T00:23:42.679Z,950.4
2023-03-07T00:24:42.838Z,950.45
2023-03-07T00:25:42.702Z,950.44
2023-03-07T00:26:42.729Z,950.42
2023-03-07T00:27:42.608Z,950.41
2023-03-07T00:28:42.705Z,950.4
2023-03-07T00:29:42.600Z,950.45
2023-03-07T00:30:42.703Z,950.44
2023-03-07T00:31:42.632Z,950.42
2023-03-07T00:32:42.862Z,950.45
2023-03-07T00:33:42.681Z,950.43
2023-03-07T00:35:42.666Z,950.41
2023-03-07T00:38:42.662Z,950.44
2023-03-07T00:39:42.793Z,950.42
2023-03-07T00:40:42.668Z,950.51
2023-03-07T00:41:42.680Z,950.52
2023-03-07T00:42:42.669Z,950.55
2023-03-07T00:43:42.815Z,950.54
2023-03-07T00:45:42.651Z,950.53
2023-03-07T00:47:42.724Z,950.49
2023-03-07T00:49:42.707Z,950.5
2023-03-07T00:50:42.719Z,950.49
2023-03-07T00:51:42.738Z,950.48
2023-03-07T00:52:42.696Z,950.47
2023-03-07T00:53:42.855Z,950.48
2023-03-07T00:54:42.823Z,950.5
2023-03-07T00:55:42.691Z,950.47
2023-03-07T00:56:42.753Z,950.43
2023-03-07T00:57:42.815Z,950.42
2023-03-07T00:58:42.707Z,950.43
2023-03-07T00:59:42.702Z,950.41
2023-03-07T01:00:42.737Z,950.4
2023-03-07T01:01:42.654Z,950.38
2023-03-07T01:02:42.735Z,950.39
2023-03-07T01:03:42.653Z,950.37
2023-03-07T01:04:42.734Z,950.36
2023-03-07T01:05:42.812Z,950.34
2023-03-07T01:06:42.761Z,950.32
2023-03-07T01:07:42.712Z,950.33
2023-03-07T01:08:42.758Z,950.34
2023-03-07T01:09:42.779Z,950.31
2023-03-07T01:10:42.713Z,950.29
2023-03-07T01:11:42.818Z,950.3
2023-03-07T01:12:42.758Z,950.27
2023-03-07T01:14:42.732Z,950.25
2023-03-07T01:15:42.793Z,950.26
2023-03-07T01:17:42.905Z,950.28
2023-03-07T01:19:42.746Z,950.25
2023-03-07T01:20:42.767Z,950.26
2023-03-07T01:22:42.762Z,950.28
2023-03-07T01:23:42.744Z,950.31
2023-03-07T01:24:42.769Z,950.3
2023-03-07T01:26:42.843Z,950.35
2023-03-07T01:27:42.812Z,950.36
2023-03-07T01:28:42.775Z,950.39
2023-03-07T01:29:42.727Z,950.37
2023-03-07T01:30:42.749Z,950.4
2023-03-07T01:31:42.957Z,950.42
2023-03-07T01:32:42.748Z,950.4
2023-03-07T01:33:42.908Z,950.41
2023-03-07T01:34:42.723Z,950.38
2023-03-07T01:35:42.797Z,950.4
2023-03-07T01:36:42.815Z,950.41
2023-03-07T01:37:42.925Z,950.37
2023-03-07T01:38:42.871Z,950.42
2023-03-07T01:39:42.876Z,950.43
2023-03-07T01:40:42.897Z,950.46
2023-03-07T01:41:42.730Z,950.42
2023-03-07T01:42:42.846Z,950.46
2023-03-07T01:43:42.874Z,950.45
2023-03-07T01:44:42.758Z,950.43
2023-03-07T01:46:42.944Z,950.4
2023-03-07T01:47:42.750Z,950.41
2023-03-07T01:48:42.781Z,950.36
2023-03-07T01:50:42.898Z,950.38
2023-03-07T01:51:42.828Z,950.37
2023-03-07T01:52:42.756Z,950.39
2023-03-07T01:53:42.938Z,950.38
2023-03-07T01:54:42.848Z,950.39
2023-03-07T01:55:42.809Z,950.37
2023-03-07T01:56:42.866Z,950.41
2023-03-07T01:57:42.978Z,950.42
2023-03-07T01:58:42.861Z,950.37
2023-03-07T01:59:42.914Z,950.38
2023-03-07T02:00:42.916Z,950.34
2023-03-07T02:01:42.820Z,950.36
2023-03-07T02:02:42.851Z,950.37
2023-03-07T02:03:42.853Z,950.29
2023-03-07T02:05:42.882Z,950.26
2023-03-07T02:06:42.961Z,950.28
2023-03-07T02:07:42.945Z,950.23
2023-03-07T02:08:42.962Z,950.19
2023-03-07T02:09:42.819Z,950.18
2023-03-07T02:10:42.885Z,950.17
2023-03-07T02:11:42.849Z,950.14
2023-03-07T02:12:42.794Z,950.12
2023-03-07T02:13:42.872Z,950.13
2023-03-07T02:14:42.821Z,950.12
2023-03-07T02:15:42.868Z,950.15
2023-03-07T02:16:42.979Z,950.13
2023-03-07T02:17:42.966Z,950.1
2023-03-07T02:18:43.054Z,950.12
2023-03-07T02:19:42.898Z,950.07
2023-03-07T02:20:42.942Z,950.1
2023-03-07T02:21:43.003Z,950.08
2023-03-07T02:22:42.868Z,950.1
2023-03-07T02:23:42.850Z,950.09
2023-03-07T02:24:42.904Z,950.11
2023-03-07T02:25:43.005Z,950.13
2023-03-07T02:26:42.831Z,950.07
2023-03-07T02:27:42.840Z,950.14
2023-03-07T02:28:42.838Z,950.09
2023-03-07T02:29:42.995Z,950.13
2023-03-07T02:30:42.949Z,950.14
2023-03-07T02:31:42.849Z,950.17
2023-03-07T02:33:43.021Z,950.16
2023-03-07T02:34:42.996Z,950.13
2023-03-07T02:35:43.078Z,950.14
2023-03-07T02:36:43.092Z,950.13
2023-03-07T02:37:42.983Z,950.14
2023-03-07T02:39:42.976Z,950.16
2023-03-07T02:40:43.019Z,950.18
2023-03-07T02:41:42.905Z,950.19
2023-03-07T02:42:42.933Z,950.16
2023-03-07T02:43:42.953Z,950.19
2023-03-07T02:44:42.901Z,950.22
2023-03-07T02:45:42.957Z,950.2
2023-03-07T02:46:42.925Z,950.22
2023-03-07T02:47:42.896Z,950.21
2023-03-07T02:48:42.937Z,950.22
2023-03-07T02:50:42.940Z,950.2
2023-03-07T02:51:43.047Z,950.19
2023-03-07T02:52:42.989Z,950.17
2023-03-07T02:54:43.007Z,950.14
2023-03-07T02:55:43.016Z,950.11
2023-03-07T02:56:43.056Z,950.08
2023-03-07T02:57:43.031Z,950.04
2023-03-07T02:58:42.943Z,950
2023-03-07T02:59:43.014Z,950.03
2023-03-07T03:00:43.080Z,949.98
2023-03-07T03:01:42.992Z,949.97
2023-03-07T03:02:42.964Z,949.95
2023-03-07T03:04:43.260Z,949.96
2023-03-07T03:05:43.002Z,949.95
2023-03-07T03:06:42.919Z,949.92
2023-03-07T03:07:42.933Z,949.91
2023-03-07T03:08:43.054Z,949.92
2023-03-07T03:09:42.958Z,949.9
2023-03-07T03:10:42.975Z,949.93
2023-03-07T03:11:43.036Z,949.91
2023-03-07T03:12:42.950Z,949.93
2023-03-07T03:13:42.930Z,949.94
2023-03-07T03:14:43.092Z,949.96
2023-03-07T03:16:43.219Z,949.94
2023-03-07T03:17:43.061Z,949.95
2023-03-07T03:18:43.040Z,949.94
2023-03-07T03:19:43.009Z,949.92
2023-03-07T03:20:43.084Z,949.89
2023-03-07T03:22:43.126Z,949.92
2023-03-07T03:23:43.057Z,949.88
2023-03-07T03:24:42.954Z,949.9
2023-03-07T03:25:43.266Z,949.93
2023-03-07T03:26:42.986Z,949.89
2023-03-07T03:27:42.980Z,949.88
2023-03-07T03:28:43.124Z,949.82
2023-03-07T03:29:43.173Z,949.84
2023-03-07T03:30:43.106Z,949.8
2023-03-07T03:31:43.081Z,949.79
2023-03-07T03:32:43.163Z,949.8
2023-03-07T03:33:42.982Z,949.78
2023-03-07T03:34:43.112Z,949.79
2023-03-07T03:35:43.176Z,949.78
2023-03-07T03:36:43.096Z,949.74
2023-03-07T03:37:43.007Z,949.77
2023-03-07T03:38:43.012Z,949.75
2023-03-07T03:39:43.040Z,949.74
2023-03-07T03:40:43.095Z,949.73
2023-03-07T03:41:43.110Z,949.76
2023-03-07T03:42:43.099Z,949.72
2023-03-07T03:43:44.055Z,949.73
2023-03-07T03:44:43.009Z,949.76
2023-03-07T03:46:43.160Z,949.73
2023-03-07T03:47:43.072Z,949.74
2023-03-07T03:48:43.026Z,949.7
2023-03-07T03:49:43.059Z,949.68
2023-03-07T03:50:43.103Z,949.65
2023-03-07T03:51:43.081Z,949.66
2023-03-07T03:52:43.130Z,949.65
2023-03-07T03:53:43.179Z,949.61
2023-03-07T03:54:43.074Z,949.59
2023-03-07T03:55:43.174Z,949.6
2023-03-07T03:56:43.137Z,949.58
2023-03-07T03:57:43.118Z,949.57
2023-03-07T03:58:43.186Z,949.59
2023-03-07T03:59:43.133Z,949.58
2023-03-07T04:00:43.134Z,949.54
2023-03-07T04:01:43.206Z,949.56
2023-03-07T04:02:43.356Z,949.54
2023-03-07T04:05:43.187Z,949.54
2023-03-07T04:06:43.107Z,949.52
2023-03-07T04:07:43.231Z,949.55
2023-03-07T04:08:43.169Z,949.52
2023-03-07T04:10:43.176Z,949.5
2023-03-07T04:11:43.120Z,949.53
2023-03-07T04:12:43.174Z,949.51
2023-03-07T04:14:43.178Z,949.47
2023-03-07T04:15:43.284Z,949.51
2023-03-07T04:16:43.175Z,949.46
2023-03-07T04:18:43.209Z,949.43
2023-03-07T04:19:43.199Z,949.44
2023-03-07T04:20:43.148Z,949.42
2023-03-07T04:21:43.111Z,949.38
2023-03-07T04:22:43.289Z,949.37
2023-03-07T04:23:43.351Z,949.38
2023-03-07T04:24:43.107Z,949.39
2023-03-07T04:25:43.205Z,949.36
2023-03-07T04:26:43.328Z,949.34
2023-03-07T04:28:43.263Z,949.31
2023-03-07T04:29:43.175Z,949.27
2023-03-07T04:30:43.205Z,949.26
2023-03-07T04:32:43.258Z,949.27
2023-03-07T04:33:43.180Z,949.2
2023-03-07T04:34:43.162Z,949.21
2023-03-07T04:35:43.210Z,949.23
2023-03-07T04:36:43.286Z,949.24
2023-03-07T04:38:43.258Z,949.18
2023-03-07T04:39:43.180Z,949.19
2023-03-07T04:40:43.290Z,949.18
2023-03-07T04:41:43.280Z,949.2
2023-03-07T04:42:43.244Z,949.18
2023-03-07T04:44:43.474Z,949.2
2023-03-07T04:45:43.488Z,949.17
2023-03-07T04:46:43.260Z,949.2
2023-03-07T04:48:43.159Z,949.16
2023-03-07T04:51:44.148Z,949.14
2023-03-07T04:52:43.170Z,949.13
2023-03-07T04:53:43.329Z,949.11
2023-03-07T04:54:43.309Z,949.09
2023-03-07T04:55:43.265Z,949.06
2023-03-07T04:56:43.292Z,949.07
2023-03-07T04:57:43.368Z,949.03
2023-03-07T04:58:43.260Z,949.01
2023-03-07T04:59:43.244Z,949.04
2023-03-07T05:00:43.236Z,949.03
2023-03-07T05:01:43.393Z,948.98
2023-03-07T05:02:43.225Z,949.01
2023-03-07T05:03:43.303Z,948.99
2023-03-07T05:04:43.254Z,948.98
2023-03-07T05:06:43.281Z,948.91
2023-03-07T05:07:43.265Z,948.92
2023-03-07T05:09:43.321Z,948.89
2023-03-07T05:11:43.375Z,948.87
2023-03-07T05:13:43.378Z,948.93
2023-03-07T05:14:43.288Z,948.92
2023-03-07T05:15:43.424Z,948.91
2023-03-07T05:17:43.266Z,948.9
2023-03-07T05:19:43.284Z,948.91
2023-03-07T05:20:43.357Z,948.89
2023-03-07T05:21:43.293Z,948.85
2023-03-07T05:23:43.298Z,948.87
2023-03-07T05:26:43.325Z,948.89
2023-03-07T05:27:43.345Z,948.85
2023-03-07T05:28:43.369Z,948.87
2023-03-07T05:29:43.366Z,948.86
2023-03-07T05:30:44.855Z,948.85
2023-03-07T05:31:43.326Z,948.86
2023-03-07T05:32:43.380Z,948.81
2023-03-07T05:33:43.382Z,948.82
2023-03-07T05:34:43.373Z,948.85
2023-03-07T05:35:43.365Z,948.84
2023-03-07T05:36:43.559Z,948.87
2023-03-07T05:37:43.371Z,948.84
2023-03-07T05:38:43.320Z,948.87
2023-03-07T05:39:43.370Z,948.82
2023-03-07T05:40:43.323Z,948.83
2023-03-07T05:41:43.500Z,948.84
2023-03-07T05:42:43.507Z,948.82
2023-03-07T05:43:43.369Z,948.81
2023-03-07T05:44:43.477Z,948.79
2023-03-07T05:45:43.415Z,948.81
2023-03-07T05:46:43.518Z,948.8
2023-03-07T05:47:43.410Z,948.83
2023-03-07T05:48:43.548Z,948.78
2023-03-07T05:49:43.436Z,948.8
2023-03-07T05:50:43.353Z,948.77
2023-03-07T05:51:43.341Z,948.78
2023-03-07T05:52:43.432Z,948.77
2023-03-07T05:54:43.414Z,948.75
2023-03-07T05:55:43.375Z,948.78
2023-03-07T05:56:43.479Z,948.71
2023-03-07T05:57:43.433Z,948.73
2023-03-07T05:58:43.546Z,948.71
2023-03-07T05:59:43.556Z,948.7
2023-03-07T06:00:43.439Z,948.73
2023-03-07T06:01:43.474Z,948.74
2023-03-07T06:02:43.430Z,948.75
2023-03-07T06:04:43.454Z,948.73
2023-03-07T06:05:43.481Z,948.74
2023-03-07T06:06:43.473Z,948.75
2023-03-07T06:07:43.406Z,948.71
2023-03-07T06:09:43.474Z,948.72
2023-03-07T06:11:43.379Z,948.71
2023-03-07T06:13:43.525Z,948.75
2023-03-07T06:15:43.608Z,948.78
2023-03-07T06:16:43.534Z,948.75
2023-03-07T06:17:43.474Z,948.76
2023-03-07T06:18:43.480Z,948.72
2023-03-07T06:19:43.529Z,948.73
2023-03-07T06:20:43.454Z,948.7
2023-03-07T06:21:43.446Z,948.66
2023-03-07T06:22:43.513Z,948.67
2023-03-07T06:24:43.512Z,948.64
2023-03-07T06:25:43.422Z,948.66
2023-03-07T06:26:43.474Z,948.63
2023-03-07T06:27:43.480Z,948.64
2023-03-07T06:28:43.520Z,948.65
2023-03-07T06:29:43.493Z,948.64
2023-03-07T06:31:43.567Z,948.61
2023-03-07T06:32:43.615Z,948.59
2023-03-07T06:33:43.471Z,948.57
2023-03-07T06:34:43.439Z,948.58
2023-03-07T06:35:43.535Z,948.57
2023-03-07T06:36:43.478Z,948.58
2023-03-07T06:37:43.506Z,948.56
2023-03-07T06:38:43.520Z,948.53
2023-03-07T06:39:43.498Z,948.55
2023-03-07T06:40:43.644Z,948.58
2023-03-07T06:41:43.518Z,948.59
2023-03-07T06:44:43.963Z,948.55
2023-03-07T06:45:43.485Z,948.59
2023-03-07T06:47:43.481Z,948.62
2023-03-07T06:49:43.478Z,948.63
2023-03-07T06:50:43.623Z,948.62
2023-03-07T06:52:43.533Z,948.63
2023-03-07T06:53:43.649Z,948.61
2023-03-07T06:54:43.557Z,948.64
2023-03-07T06:55:43.607Z,948.68
2023-03-07T06:58:43.703Z,948.7
2023-03-07T07:00:43.625Z,948.71
2023-03-07T07:01:43.571Z,948.7
2023-03-07T07:02:43.705Z,948.68
2023-03-07T07:03:43.636Z,948.72
2023-03-07T07:04:43.770Z,948.67
2023-03-07T07:05:43.622Z,948.65
2023-03-07T07:06:43.660Z,948.66
2023-03-07T07:07:43.685Z,948.69
2023-03-07T07:08:43.544Z,948.7
2023-03-07T07:09:43.640Z,948.68
2023-03-07T07:10:43.558Z,948.74
2023-03-07T07:11:43.639Z,948.71
2023-03-07T07:13:43.604Z,948.74
2023-03-07T07:14:43.555Z,948.69
2023-03-07T07:15:43.564Z,948.7
2023-03-07T07:17:43.611Z,948.66
2023-03-07T07:18:43.740Z,948.7
2023-03-07T07:19:43.574Z,948.68
2023-03-07T07:20:43.613Z,948.7
2023-03-07T07:21:43.718Z,948.66
2023-03-07T07:22:43.577Z,948.65
2023-03-07T07:23:43.598Z,948.66
2023-03-07T07:24:43.638Z,948.67
2023-03-07T07:25:43.574Z,948.68
2023-03-07T07:26:43.662Z,948.64
2023-03-07T07:27:44.728Z,948.66
2023-03-07T07:28:43.782Z,948.69
2023-03-07T07:29:43.692Z,948.62
2023-03-07T07:30:43.618Z,948.65
2023-03-07T07:31:43.683Z,948.67
2023-03-07T07:32:43.766Z,948.64
2023-03-07T07:34:43.643Z,948.65
2023-03-07T07:36:43.716Z,948.67
2023-03-07T07:37:43.597Z,948.64
2023-03-07T07:38:43.739Z,948.59
2023-03-07T07:39:43.628Z,948.6
2023-03-07T07:40:43.649Z,948.59
2023-03-07T07:41:43.606Z,948.6
2023-03-07T07:42:43.600Z,948.59
2023-03-07T07:43:43.631Z,948.6
2023-03-07T07:45:43.837Z,948.57
2023-03-07T07:46:43.704Z,948.58
2023-03-07T07:47:43.647Z,948.57
2023-03-07T07:48:43.697Z,948.59
2023-03-07T07:49:43.645Z,948.56
2023-03-07T07:50:43.725Z,948.57
2023-03-07T07:51:43.690Z,948.52
2023-03-07T07:52:43.644Z,948.57
2023-03-07T07:53:43.680Z,948.55
2023-03-07T07:56:43.678Z,948.58
2023-03-07T07:57:43.662Z,948.54
2023-03-07T07:58:43.723Z,948.52
2023-03-07T07:59:43.662Z,948.59
2023-03-07T08:00:43.795Z,948.55
2023-03-07T08:01:43.662Z,948.52
2023-03-07T08:02:43.763Z,948.55
2023-03-07T08:04:43.693Z,948.53
2023-03-07T08:05:44.043Z,948.52
2023-03-07T08:06:43.733Z,948.55
2023-03-07T08:07:43.750Z,948.56
2023-03-07T08:09:43.724Z,948.52
2023-03-07T08:10:43.757Z,948.53
2023-03-07T08:11:43.725Z,948.54
2023-03-07T08:13:43.701Z,948.51
2023-03-07T08:15:43.763Z,948.5
2023-03-07T08:16:43.727Z,948.47
2023-03-07T08:17:43.698Z,948.51
2023-03-07T08:18:43.786Z,948.52
2023-03-07T08:19:43.737Z,948.49
2023-03-07T08:21:43.754Z,948.44
2023-03-07T08:22:43.743Z,948.48
2023-03-07T08:23:43.741Z,948.51
2023-03-07T08:24:43.757Z,948.47
2023-03-07T08:25:43.738Z,948.45
2023-03-07T08:26:43.791Z,948.43
2023-03-07T08:27:43.735Z,948.44
2023-03-07T08:28:43.756Z,948.37
2023-03-07T08:29:43.763Z,948.4
2023-03-07T08:31:43.807Z,948.39
2023-03-07T08:32:43.839Z,948.35
2023-03-07T08:33:43.720Z,948.34
2023-03-07T08:34:43.777Z,948.37
2023-03-07T08:35:43.885Z,948.32
2023-03-07T08:36:43.932Z,948.33
2023-03-07T08:37:43.904Z,948.31
2023-03-07T08:38:43.985Z,948.35
2023-03-07T08:39:43.747Z,948.39
2023-03-07T08:40:43.859Z,948.34
2023-03-07T08:41:43.878Z,948.36
2023-03-07T08:42:43.845Z,948.35
2023-03-07T08:43:43.900Z,948.36
2023-03-07T08:44:43.896Z,948.33
2023-03-07T08:45:43.789Z,948.37
2023-03-07T08:47:43.805Z,948.35
2023-03-07T08:49:43.926Z,948.33
2023-03-07T08:50:43.787Z,948.41
2023-03-07T08:51:43.764Z,948.4
2023-03-07T08:52:43.896Z,948.41
2023-03-07T08:53:43.848Z,948.42
2023-03-07T08:55:43.827Z,948.39
2023-03-07T08:56:43.813Z,948.38
2023-03-07T08:58:43.864Z,948.35
2023-03-07T08:59:43.812Z,948.36
2023-03-07T09:01:43.838Z,948.33
2023-03-07T09:02:43.867Z,948.28
2023-03-07T09:03:43.830Z,948.26
2023-03-07T09:04:43.871Z,948.29
2023-03-07T09:05:43.835Z,948.26
2023-03-07T09:06:43.807Z,948.33
2023-03-07T09:07:43.808Z,948.31
2023-03-07T09:08:43.823Z,948.29
2023-03-07T09:09:43.798Z,948.28
2023-03-07T09:10:43.867Z,948.26
2023-03-07T09:11:43.914Z,948.25
2023-03-07T09:12:43.847Z,948.24
2023-03-07T09:13:51.747Z,948.25
2023-03-07T09:14:43.821Z,948.28
2023-03-07T09:15:43.844Z,948.24
2023-03-07T09:16:43.893Z,948.22
2023-03-07T09:17:43.831Z,948.24
2023-03-07T09:18:43.909Z,948.2
2023-03-07T09:19:43.837Z,948.23
2023-03-07T09:20:43.896Z,948.19
2023-03-07T09:22:43.864Z,948.16
2023-03-07T09:23:43.890Z,948.12
2023-03-07T09:24:44.006Z,948.14
2023-03-07T09:25:43.971Z,948.1
2023-03-07T09:27:43.931Z,948.11
2023-03-07T09:28:43.897Z,948.05
2023-03-07T09:29:43.901Z,948.04
2023-03-07T09:30:43.877Z,948
2023-03-07T09:31:44.233Z,947.97
2023-03-07T09:33:46.260Z,947.98
2023-03-07T09:34:43.883Z,947.97
2023-03-07T09:35:44.036Z,948
2023-03-07T09:36:44.012Z,948.01
2023-03-07T09:37:43.866Z,948.07
2023-03-07T09:38:43.910Z,947.99
2023-03-07T09:39:44.049Z,947.94
2023-03-07T09:40:43.946Z,947.97
2023-03-07T09:41:43.934Z,947.99
2023-03-07T09:43:44.053Z,947.91
2023-03-07T09:44:43.938Z,947.87
2023-03-07T09:45:43.994Z,947.9
2023-03-07T09:46:43.922Z,947.86
2023-03-07T09:47:43.968Z,947.85
2023-03-07T09:48:43.930Z,947.83
2023-03-07T09:49:44.143Z,947.84
2023-03-07T09:50:43.901Z,947.82
2023-03-07T09:51:43.942Z,947.81
2023-03-07T09:52:44.047Z,947.82
2023-03-07T09:53:43.973Z,947.87
2023-03-07T09:54:44.051Z,947.89
2023-03-07T09:55:43.926Z,947.9
2023-03-07T09:56:43.974Z,947.8
2023-03-07T09:57:43.944Z,947.77
2023-03-07T09:58:43.982Z,947.7
2023-03-07T09:59:43.977Z,947.66
2023-03-07T10:00:43.949Z,947.65
2023-03-07T10:01:43.942Z,947.58
2023-03-07T10:02:43.946Z,947.55
2023-03-07T10:03:44.034Z,947.52
2023-03-07T10:04:44.263Z,947.5
2023-03-07T10:05:43.987Z,947.51
2023-03-07T10:06:43.964Z,947.53
2023-03-07T10:07:43.946Z,947.48
2023-03-07T10:08:43.992Z,947.45
2023-03-07T10:09:44.076Z,947.43
2023-03-07T10:12:43.991Z,947.45
2023-03-07T10:13:43.983Z,947.42
2023-03-07T10:14:43.995Z,947.43
2023-03-07T10:15:44.157Z,947.44
2023-03-07T10:17:44.041Z,947.48
2023-03-07T10:18:44.010Z,947.49
2023-03-07T10:19:43.965Z,947.41
2023-03-07T10:20:44.114Z,947.38
2023-03-07T10:21:43.998Z,947.35
2023-03-07T10:22:44.020Z,947.33
2023-03-07T10:23:44.028Z,947.24
2023-03-07T10:24:44.077Z,947.18
2023-03-07T10:25:44.211Z,947.14
2023-03-07T10:26:44.122Z,947.13
2023-03-07T10:27:44.056Z,947.14
2023-03-07T10:29:43.991Z,947.16
2023-03-07T10:30:44.068Z,947.08
2023-03-07T10:31:44.063Z,947.05
2023-03-07T10:33:44.068Z,947.09
2023-03-07T10:34:44.052Z,947.06
2023-03-07T10:35:44.097Z,947.01
2023-03-07T10:36:44.023Z,947.02
2023-03-07T10:37:44.142Z,946.98
2023-03-07T10:38:44.072Z,946.92
2023-03-07T10:39:44.181Z,946.91
2023-03-07T10:40:44.035Z,946.85
2023-03-07T10:41:44.141Z,946.9
2023-03-07T10:42:44.038Z,946.85
2023-03-07T10:44:44.165Z,946.8
2023-03-07T10:45:44.062Z,946.79
2023-03-07T10:47:44.114Z,946.82
2023-03-07T10:48:44.082Z,946.76
2023-03-07T10:49:44.099Z,946.72
2023-03-07T10:50:44.076Z,946.75
2023-03-07T10:51:44.118Z,946.74
2023-03-07T10:53:44.100Z,946.76
2023-03-07T10:54:44.054Z,946.77
2023-03-07T10:57:44.122Z,946.82
2023-03-07T10:58:44.154Z,946.78
2023-03-07T11:00:44.092Z,946.72
2023-03-07T11:01:44.163Z,946.7
2023-03-07T11:02:44.207Z,946.68
2023-03-07T11:03:52.434Z,946.62
2023-03-07T11:05:44.230Z,946.55
2023-03-07T11:06:44.139Z,946.56
2023-03-07T11:07:44.108Z,946.5
2023-03-07T11:09:44.139Z,946.54
2023-03-07T11:10:44.141Z,946.52
2023-03-07T11:11:44.168Z,946.49
2023-03-07T11:12:44.106Z,946.45
2023-03-07T11:13:44.098Z,946.41
2023-03-07T11:14:44.140Z,946.39
2023-03-07T11:15:44.194Z,946.41
2023-03-07T11:16:44.193Z,946.4
2023-03-07T11:17:44.214Z,946.41
2023-03-07T11:18:44.112Z,946.38
2023-03-07T11:19:44.228Z,946.37
2023-03-07T11:20:44.148Z,946.33
2023-03-07T11:21:44.161Z,946.37
2023-03-07T11:22:44.154Z,946.35
2023-03-07T11:23:44.194Z,946.34
2023-03-07T11:25:44.182Z,946.35
2023-03-07T11:26:44.172Z,946.34
2023-03-07T11:27:44.203Z,946.36
2023-03-07T11:28:44.155Z,946.33
2023-03-07T11:29:44.207Z,946.39
2023-03-07T11:30:44.209Z,946.36
2023-03-07T11:31:44.186Z,946.38
2023-03-07T11:32:44.243Z,946.44
2023-03-07T11:34:44.239Z,946.45
2023-03-07T11:35:44.223Z,946.43
2023-03-07T11:37:44.235Z,946.49
2023-03-07T11:38:44.170Z,946.41
2023-03-07T11:39:44.328Z,946.4
2023-03-07T11:41:44.176Z,946.34
2023-03-07T11:42:44.216Z,946.31
2023-03-07T11:43:44.274Z,946.28
2023-03-07T11:44:44.213Z,946.3
2023-03-07T11:45:44.228Z,946.31
2023-03-07T11:48:44.166Z,946.34
2023-03-07T11:49:44.358Z,946.27
2023-03-07T11:50:44.241Z,946.19
2023-03-07T11:51:44.267Z,946.14
2023-03-07T11:52:44.178Z,946.16
2023-03-07T11:53:44.235Z,946.13
2023-03-07T11:54:44.204Z,946.08
2023-03-07T11:55:44.284Z,946.13
2023-03-07T11:56:44.253Z,946.06
2023-03-07T11:57:44.269Z,946.04
2023-03-07T11:58:44.349Z,946.08
2023-03-07T11:59:44.373Z,946.1
2023-03-07T12:00:44.257Z,946.09
2023-03-07T12:01:44.411Z,946.07
2023-03-07T12:02:44.285Z,946.03
2023-03-07T12:03:44.323Z,945.97
2023-03-07T12:04:44.325Z,945.93
2023-03-07T12:06:44.247Z,945.9
2023-03-07T12:07:44.256Z,945.87
2023-03-07T12:08:44.381Z,945.83
2023-03-07T12:09:44.270Z,945.85
2023-03-07T12:10:44.277Z,945.81
2023-03-07T12:12:44.291Z,945.83
2023-03-07T12:14:44.297Z,945.77
2023-03-07T12:15:44.270Z,945.74
2023-03-07T12:16:44.269Z,945.73
2023-03-07T12:17:44.262Z,945.75
2023-03-07T12:18:44.355Z,945.8
2023-03-07T12:19:44.466Z,945.77
2023-03-07T12:20:44.375Z,945.73
2023-03-07T12:21:44.272Z,945.69
2023-03-07T12:22:44.339Z,945.66
2023-03-07T12:23:44.421Z,945.67
2023-03-07T12:24:44.289Z,945.64
2023-03-07T12:25:44.333Z,945.65
2023-03-07T12:26:44.342Z,945.66
2023-03-07T12:27:44.327Z,945.68
2023-03-07T12:29:44.358Z,945.64
2023-03-07T12:30:44.388Z,945.52
2023-03-07T12:31:44.467Z,945.48
2023-03-07T12:32:44.526Z,945.5
2023-03-07T12:33:44.349Z,945.47
2023-03-07T12:34:44.332Z,945.43
2023-03-07T12:35:44.571Z,945.46
2023-03-07T12:37:44.298Z,945.45
2023-03-07T12:38:44.336Z,945.37
2023-03-07T12:39:44.336Z,945.4
2023-03-07T12:40:44.337Z,945.38
2023-03-07T12:41:44.321Z,945.37
2023-03-07T12:42:44.484Z,945.38
2023-03-07T12:43:44.353Z,945.36
2023-03-07T12:44:44.386Z,945.43
2023-03-07T12:45:44.596Z,945.39
2023-03-07T12:46:44.374Z,945.4
2023-03-07T12:47:44.354Z,945.41
2023-03-07T12:48:44.396Z,945.35
2023-03-07T12:49:49.578Z,945.33
2023-03-07T12:50:44.354Z,945.31
2023-03-07T12:51:44.385Z,945.23
2023-03-07T12:53:44.425Z,945.13
2023-03-07T12:54:44.555Z,945.07
2023-03-07T12:55:44.386Z,945.15
2023-03-07T12:56:44.421Z,945.18
2023-03-07T12:57:44.371Z,945.2
2023-03-07T12:58:44.457Z,945.21
2023-03-07T12:59:44.399Z,945.19
2023-03-07T13:00:44.454Z,945.21
2023-03-07T13:02:44.361Z,945.17
2023-03-07T13:03:44.466Z,945.07
2023-03-07T13:04:44.396Z,945.03
2023-03-07T13:05:44.411Z,945.09
2023-03-07T13:06:44.465Z,945.07
2023-03-07T13:08:44.456Z,945.06
2023-03-07T13:09:44.561Z,945.1
2023-03-07T13:10:44.431Z,945.13
2023-03-07T13:11:44.454Z,945.18
2023-03-07T13:12:44.422Z,945.21
2023-03-07T13:13:44.448Z,945.22
2023-03-07T13:14:44.538Z,945.21
2023-03-07T13:15:44.404Z,945.08
2023-03-07T13:16:44.522Z,945.06
2023-03-07T13:17:44.385Z,945.03
2023-03-07T13:18:44.436Z,945.05
2023-03-07T13:19:44.382Z,945.03
2023-03-07T13:20:44.478Z,944.96
2023-03-07T13:21:44.431Z,944.91
2023-03-07T13:22:44.463Z,944.86
2023-03-07T13:23:44.486Z,944.79
2023-03-07T13:24:44.476Z,944.78
2023-03-07T13:25:44.509Z,944.79
2023-03-07T13:26:44.579Z,944.85
2023-03-07T13:27:44.461Z,944.79
2023-03-07T13:28:44.562Z,944.81
2023-03-07T13:30:44.503Z,944.9
2023-03-07T13:31:44.524Z,944.89
2023-03-07T13:32:44.437Z,944.88
2023-03-07T13:33:44.446Z,944.89
2023-03-07T13:34:44.556Z,944.84
2023-03-07T13:35:44.477Z,944.8
2023-03-07T13:36:44.419Z,944.83
2023-03-07T13:37:44.463Z,944.86
2023-03-07T13:38:44.504Z,944.85
2023-03-07T13:39:44.457Z,944.79
2023-03-07T13:40:44.457Z,944.76
2023-03-07T13:41:44.513Z,944.79
2023-03-07T13:42:44.496Z,944.81
2023-03-07T13:43:44.483Z,944.84
2023-03-07T13:44:44.539Z,944.9
2023-03-07T13:45:44.588Z,944.92
2023-03-07T13:46:44.496Z,944.94
2023-03-07T13:47:44.507Z,944.89
2023-03-07T13:48:44.555Z,944.91
2023-03-07T13:49:44.552Z,944.95
2023-03-07T13:50:44.582Z,945
2023-03-07T13:51:44.541Z,945.02
2023-03-07T13:52:44.546Z,945.03
2023-03-07T13:53:44.601Z,945.02
2023-03-07T13:56:44.545Z,945.05
2023-03-07T13:57:44.561Z,945.04
2023-03-07T13:59:44.555Z,944.98
2023-03-07T14:00:44.507Z,944.87
2023-03-07T14:01:44.689Z,944.82
2023-03-07T14:02:44.562Z,944.83
2023-03-07T14:03:44.572Z,944.88
2023-03-07T14:04:44.555Z,944.89
2023-03-07T14:05:44.527Z,944.95
2023-03-07T14:06:44.583Z,944.96
2023-03-07T14:07:44.557Z,945.01
2023-03-07T14:08:44.512Z,944.97
2023-03-07T14:09:44.506Z,944.95
2023-03-07T14:11:44.553Z,944.97
2023-03-07T14:12:44.582Z,945
2023-03-07T14:13:44.640Z,944.96
2023-03-07T14:14:44.544Z,944.92
2023-03-07T14:15:44.630Z,944.93
2023-03-07T14:16:44.562Z,944.94
2023-03-07T14:17:44.591Z,944.85
2023-03-07T14:18:44.588Z,944.82
2023-03-07T14:19:45.281Z,944.84
2023-03-07T14:20:44.564Z,944.83
2023-03-07T14:22:44.551Z,944.78
2023-03-07T14:23:44.715Z,944.8
2023-03-07T14:24:44.588Z,944.85
2023-03-07T14:25:44.629Z,944.87
2023-03-07T14:26:44.629Z,944.84
2023-03-07T14:27:44.621Z,944.83
2023-03-07T14:28:44.641Z,944.85